createdAt,value
2023-01-28T00:01:42.471Z,99590.75
2023-01-28T00:04:27.792Z,99589.19
2023-01-28T00:07:12.988Z,99585.63
2023-01-28T00:09:58.363Z,99588.38
2023-01-28T00:12:43.560Z,99587.59
2023-01-28T00:15:28.881Z,99582.84
2023-01-28T00:18:14.617Z,99588.81
2023-01-28T00:21:12.109Z,99588.38
2023-01-28T00:23:57.628Z,99589.97
2023-01-28T00:26:42.965Z,99594.75
2023-01-28T00:29:28.320Z,99592.75
2023-01-28T00:32:13.452Z,99593.94
2023-01-28T00:34:58.738Z,99594.75
2023-01-28T00:37:46.161Z,99594.75
2023-01-28T00:40:31.982Z,99592.38
2023-01-28T00:43:17.321Z,99592.38
2023-01-28T00:46:02.853Z,99597.16
2023-01-28T00:48:48.903Z,99597.94
2023-01-28T00:51:34.513Z,99603.47
2023-01-28T00:54:21.927Z,99603.47
2023-01-28T00:57:08.084Z,99600.69
2023-01-28T00:59:53.419Z,99603.47
2023-01-28T01:02:41.974Z,99602.25
2023-01-28T01:05:29.596Z,99596.34
2023-01-28T01:08:14.809Z,99603.47
2023-01-28T01:11:00.133Z,99596.34
2023-01-28T01:13:49.572Z,99590.78
2023-01-28T01:16:36.523Z,99593.56
2023-01-28T01:19:21.669Z,99595.56
2023-01-28T01:22:06.785Z,99608.25
2023-01-28T01:24:52.491Z,99607.44
2023-01-28T01:27:37.840Z,99620.13
2023-01-28T01:30:23.780Z,99609.81
2023-01-28T01:33:09.436Z,99610.66
2023-01-28T01:35:55.216Z,99615.75
2023-01-28T01:38:41.861Z,99613.81
2023-01-28T01:41:33.439Z,99618.53
2023-01-28T01:44:57.252Z,99624.09
2023-01-28T01:48:00.598Z,99620.53
2023-01-28T01:51:01.563Z,99619.75
2023-01-28T01:53:52.533Z,99622.53
2023-01-28T01:56:42.657Z,99618.19
2023-01-28T01:59:31.444Z,99616.97
2023-01-28T02:02:17.457Z,99617.75
2023-01-28T02:05:04.167Z,99620.53
2023-01-28T02:07:55.072Z,99617.75
2023-01-28T02:10:40.517Z,99618.53
2023-01-28T02:13:36.117Z,99617.34
2023-01-28T02:16:22.322Z,99611.81
2023-01-28T02:19:09.750Z,99614.59
2023-01-28T02:22:15.672Z,99606.25
2023-01-28T02:25:25.078Z,99608.25
2023-01-28T02:28:34.218Z,99611.81
2023-01-28T02:31:27.360Z,99611.81
2023-01-28T02:34:36.266Z,99610.22
2023-01-28T02:37:25.700Z,99611.81
2023-01-28T02:40:20.606Z,99619.34
2023-01-28T02:43:06.222Z,99628.47
2023-01-28T02:46:10.353Z,99622.13
2023-01-28T02:48:55.792Z,99619.34
2023-01-28T02:51:56.616Z,99624.09
2023-01-28T02:54:41.922Z,99626.47
2023-01-28T02:58:01.383Z,99622.91
2023-01-28T03:01:01.789Z,99627.69
2023-01-28T03:04:15.627Z,99618.53
2023-01-28T03:07:05.480Z,99627.28
2023-01-28T03:09:52.633Z,99627.28
2023-01-28T03:12:59.755Z,99628.06
2023-01-28T03:16:07.580Z,99629.63
2023-01-28T03:19:12.898Z,99628.06
2023-01-28T03:22:16.733Z,99632.41
2023-01-28T03:25:21.239Z,99631.22
2023-01-28T03:28:32.170Z,99643.91
2023-01-28T03:31:41.032Z,99635.56
2023-01-28T03:34:44.826Z,99637.56
2023-01-28T03:37:32.457Z,99636.78
2023-01-28T03:41:06.472Z,99646.69
2023-01-28T03:43:53.472Z,99649.44
2023-01-28T03:46:40.053Z,99649.44
2023-01-28T03:49:25.420Z,99644.72
2023-01-28T03:52:10.690Z,99656.59
2023-01-28T03:54:56.829Z,99651.81
2023-01-28T03:57:42.282Z,99653.03
2023-01-28T04:00:27.500Z,99651.03
2023-01-28T04:03:19.937Z,99662.16
2023-01-28T04:06:31.713Z,99652.22
2023-01-28T04:09:45.594Z,99655.00
2023-01-28T04:12:44.079Z,99662.56
2023-01-28T04:15:31.086Z,99663.75
2023-01-28T04:18:16.942Z,99664.53
2023-01-28T04:21:03.235Z,99662.94
2023-01-28T04:23:50.147Z,99664.53
2023-01-28T04:26:35.235Z,99671.28
2023-01-28T04:29:21.096Z,99668.50
2023-01-28T04:32:11.464Z,99673.66
2023-01-28T04:35:17.531Z,99673.66
2023-01-28T04:38:24.017Z,99681.19
2023-01-28T04:41:25.920Z,99681.19
2023-01-28T04:44:11.185Z,99678.41
2023-01-28T04:47:19.890Z,99676.44
2023-01-28T04:50:44.594Z,99691.09
2023-01-28T04:53:38.626Z,99688.31
2023-01-28T04:56:42.852Z,99695.47
2023-01-28T04:59:28.676Z,99689.91
2023-01-28T05:02:14.960Z,99695.47
2023-01-28T05:05:04.881Z,99702.19
2023-01-28T05:08:00.139Z,99711.34
2023-01-28T05:10:45.956Z,99710.50
2023-01-28T05:13:32.048Z,99717.28
2023-01-28T05:16:18.678Z,99718.47
2023-01-28T05:19:04.117Z,99714.50
2023-01-28T05:21:56.007Z,99714.13
2023-01-28T05:24:50.383Z,99714.50
2023-01-28T05:27:35.803Z,99718.06
2023-01-28T05:30:22.228Z,99722.81
2023-01-28T05:33:08.073Z,99723.22
2023-01-28T05:35:53.509Z,99726.78
2023-01-28T05:38:40.712Z,99727.97
2023-01-28T05:41:26.183Z,99735.88
2023-01-28T05:44:18.600Z,99728.78
2023-01-28T05:47:16.077Z,99730.34
2023-01-28T05:50:18.196Z,99734.69
2023-01-28T05:53:23.447Z,99741.41
2023-01-28T05:56:09.753Z,99742.22
2023-01-28T05:58:56.654Z,99744.59
2023-01-28T06:01:42.526Z,99748.19
2023-01-28T06:04:27.771Z,99749.38
2023-01-28T06:07:13.518Z,99754.16
2023-01-28T06:10:01.464Z,99755.75
2023-01-28T06:12:47.144Z,99762.06
2023-01-28T06:15:51.428Z,99766.81
2023-01-28T06:18:45.768Z,99772.75
2023-01-28T06:21:31.594Z,99770.75
2023-01-28T06:24:17.503Z,99777.88
2023-01-28T06:27:02.935Z,99779.81
2023-01-28T06:29:48.420Z,99786.91
2023-01-28T06:32:35.420Z,99785.72
2023-01-28T06:35:30.074Z,99784.91
2023-01-28T06:38:19.915Z,99795.19
2023-01-28T06:41:05.771Z,99799.16
2023-01-28T06:43:51.471Z,99803.06
2023-01-28T06:46:37.332Z,99807.81
2023-01-28T06:49:23.185Z,99809.78
2023-01-28T06:52:09.170Z,99815.72
2023-01-28T06:54:55.331Z,99814.50
2023-01-28T06:57:41.790Z,99820.84
2023-01-28T07:00:27.141Z,99820.84
2023-01-28T07:03:13.034Z,99824.00
2023-01-28T07:05:58.393Z,99827.16
2023-01-28T07:08:43.669Z,99825.94
2023-01-28T07:11:29.109Z,99839.06
2023-01-28T07:14:14.593Z,99838.28
2023-01-28T07:17:00.015Z,99839.06
2023-01-28T07:19:45.787Z,99839.41
2023-01-28T07:22:30.944Z,99837.00
2023-01-28T07:25:16.679Z,99834.22
2023-01-28T07:28:02.648Z,99828.25
2023-01-28T07:30:53.517Z,99835.03
2023-01-28T07:33:39.151Z,99844.53
2023-01-28T07:36:24.416Z,99850.09
2023-01-28T07:39:10.219Z,99852.03
2023-01-28T07:41:55.615Z,99848.09
2023-01-28T07:44:57.984Z,99849.66
2023-01-28T07:47:43.500Z,99840.53
2023-01-28T07:50:30.940Z,99846.47
2023-01-28T07:53:20.559Z,99849.19
2023-01-28T07:56:08.768Z,99850.41
2023-01-28T07:58:54.221Z,99845.63
2023-01-28T08:01:40.046Z,99848.78
2023-01-28T08:04:25.183Z,99859.06
2023-01-28T08:07:10.600Z,99854.28
2023-01-28T08:09:55.779Z,99854.28
2023-01-28T08:12:41.150Z,99855.09
2023-01-28T08:15:26.844Z,99855.88
2023-01-28T08:18:15.499Z,99865.00
2023-01-28T08:21:00.926Z,99857.47
2023-01-28T08:23:46.565Z,99858.28
2023-01-28T08:26:32.266Z,99867.81
2023-01-28T08:29:17.810Z,99858.31
2023-01-28T08:32:03.130Z,99855.13
2023-01-28T08:34:48.798Z,99859.84
2023-01-28T08:37:35.961Z,99863.06
2023-01-28T08:40:22.283Z,99863.03
2023-01-28T08:43:07.812Z,99865.81
2023-01-28T08:45:54.585Z,99868.59
2023-01-28T08:48:40.286Z,99868.19
2023-01-28T08:51:26.647Z,99878.91
2023-01-28T08:54:12.389Z,99876.53
2023-01-28T08:56:58.729Z,99884.47
2023-01-28T08:59:46.542Z,99879.72
2023-01-28T09:02:32.596Z,99880.50
2023-01-28T09:05:19.014Z,99895.97
2023-01-28T09:08:10.626Z,99890.81
2023-01-28T09:10:57.524Z,99898.34
2023-01-28T09:13:43.089Z,99891.22
2023-01-28T09:16:28.786Z,99895.56
2023-01-28T09:19:15.785Z,99901.91
2023-01-28T09:22:04.257Z,99896.81
2023-01-28T09:24:50.056Z,99891.69
2023-01-28T09:27:35.441Z,99908.38
2023-01-28T09:30:21.356Z,99910.72
2023-01-28T09:33:07.910Z,99903.16
2023-01-28T09:35:53.518Z,99899.56
2023-01-28T09:38:39.261Z,99909.13
2023-01-28T09:41:49.789Z,99905.94
2023-01-28T09:44:35.132Z,99906.72
2023-01-28T09:47:27.120Z,99896.38
2023-01-28T09:50:39.100Z,99901.94
2023-01-28T09:53:31.092Z,99909.91
2023-01-28T09:56:26.230Z,99903.50
2023-01-28T09:59:22.911Z,99904.31
2023-01-28T10:02:36.269Z,99902.34
2023-01-28T10:05:46.578Z,99903.13
2023-01-28T10:08:39.890Z,99906.69
2023-01-28T10:11:25.331Z,99912.28
2023-01-28T10:14:28.965Z,99911.91
2023-01-28T10:17:26.899Z,99910.72
2023-01-28T10:20:12.956Z,99920.66
2023-01-28T10:23:08.175Z,99920.28
2023-01-28T10:25:57.780Z,99917.94
2023-01-28T10:28:43.506Z,99917.97
2023-01-28T10:31:34.212Z,99922.72
2023-01-28T10:34:20.979Z,99927.06
2023-01-28T10:37:06.476Z,99926.69
2023-01-28T10:39:56.836Z,99921.09
2023-01-28T10:42:43.344Z,99929.47
2023-01-28T10:45:34.865Z,99935.41
2023-01-28T10:48:23.145Z,99931.41
2023-01-28T10:51:08.848Z,99934.56
2023-01-28T10:53:54.318Z,99944.91
2023-01-28T10:56:43.312Z,99942.84
2023-01-28T10:59:31.772Z,99931.72
2023-01-28T11:02:33.220Z,99934.47
2023-01-28T11:05:23.050Z,99940.81
2023-01-28T11:08:18.949Z,99941.19
2023-01-28T11:11:14.875Z,99944.34
2023-01-28T11:14:01.293Z,99930.84
2023-01-28T11:16:47.129Z,99930.41
2023-01-28T11:19:35.819Z,99931.59
2023-01-28T11:22:32.951Z,99925.22
2023-01-28T11:25:27.312Z,99932.78
2023-01-28T11:28:39.501Z,99931.97
2023-01-28T11:31:26.588Z,99933.94
2023-01-28T11:34:18.543Z,99933.56
2023-01-28T11:37:12.523Z,99921.22
2023-01-28T11:40:23.216Z,99927.22
2023-01-28T11:43:09.429Z,99925.22
2023-01-28T11:46:14.746Z,99916.88
2023-01-28T11:49:12.101Z,99918.44
2023-01-28T11:52:06.689Z,99908.91
2023-01-28T11:55:18.187Z,99908.91
2023-01-28T11:58:21.215Z,99911.28
2023-01-28T12:01:20.843Z,99915.25
2023-01-28T12:04:32.619Z,99905.28
2023-01-28T12:07:54.337Z,99907.69
2023-01-28T12:10:57.079Z,99901.72
2023-01-28T12:14:35.080Z,99909.28
2023-01-28T12:17:31.584Z,99907.66
2023-01-28T12:20:31.285Z,99893.84
2023-01-28T12:23:35.882Z,99898.19
2023-01-28T12:26:47.177Z,99902.56
2023-01-28T12:29:35.790Z,99904.53
2023-01-28T12:32:32.671Z,99896.19
2023-01-28T12:35:24.377Z,99903.34
2023-01-28T12:38:20.075Z,99887.84
2023-01-28T12:41:13.851Z,99887.06
2023-01-28T12:44:03.576Z,99897.78
2023-01-28T12:46:52.335Z,99885.88
2023-01-28T12:49:50.685Z,99881.09
2023-01-28T12:52:43.095Z,99883.88
2023-01-28T12:55:45.591Z,99881.09
2023-01-28T12:58:39.092Z,99878.31
2023-01-28T13:01:35.251Z,99879.50
2023-01-28T13:04:37.278Z,99882.28
2023-01-28T13:07:34.426Z,99879.16
2023-01-28T13:10:24.929Z,99877.94
2023-01-28T13:13:42.415Z,99874.78
2023-01-28T13:16:36.945Z,99878.75
2023-01-28T13:19:37.030Z,99886.69
2023-01-28T13:22:44.104Z,99877.16
2023-01-28T13:25:29.429Z,99885.13
2023-01-28T13:28:33.304Z,99888.28
2023-01-28T13:31:20.934Z,99887.50
2023-01-28T13:34:08.591Z,99886.28
2023-01-28T13:36:54.905Z,99891.44
2023-01-28T13:39:48.766Z,99893.41
2023-01-28T13:42:34.901Z,99902.56
2023-01-28T13:45:23.228Z,99903.34
2023-01-28T13:48:19.450Z,99900.16
2023-01-28T13:51:16.484Z,99903.66
2023-01-28T13:54:14.111Z,99892.53
2023-01-28T13:56:59.584Z,99899.66
2023-01-28T14:00:27.136Z,99906.78
2023-01-28T14:03:30.971Z,99907.97
2023-01-28T14:06:28.603Z,99916.72
2023-01-28T14:10:00.113Z,99922.34
2023-01-28T14:12:49.941Z,99921.56
2023-01-28T14:16:00.732Z,99927.44
2023-01-28T14:18:48.725Z,99919.88
2023-01-28T14:21:35.869Z,99921.47
2023-01-28T14:24:21.929Z,99927.03
2023-01-28T14:27:18.407Z,99933.00
2023-01-28T14:30:25.831Z,99932.19
2023-01-28T14:33:12.537Z,99933.41
2023-01-28T14:35:58.233Z,99927.06
2023-01-28T14:38:45.449Z,99923.09
2023-01-28T14:41:31.136Z,99923.47
2023-01-28T14:44:37.039Z,99934.63
2023-01-28T14:47:37.555Z,99919.13
2023-01-28T14:50:50.497Z,99919.94
2023-01-28T14:54:09.897Z,99919.13
2023-01-28T14:57:26.041Z,99917.94
2023-01-28T15:00:24.031Z,99931.84
2023-01-28T15:03:24.962Z,99934.63
2023-01-28T15:06:17.164Z,99923.50
2023-01-28T15:09:08.664Z,99919.94
2023-01-28T15:11:57.864Z,99914.00
2023-01-28T15:14:44.700Z,99922.75
2023-01-28T15:17:30.201Z,99923.19
2023-01-28T15:20:23.014Z,99917.25
2023-01-28T15:23:09.126Z,99925.97
2023-01-28T15:25:55.519Z,99929.13
2023-01-28T15:28:43.398Z,99922.81
2023-01-28T15:31:32.737Z,99914.47
2023-01-28T15:34:20.591Z,99920.47
2023-01-28T15:37:05.918Z,99922.44
2023-01-28T15:40:09.130Z,99919.25
2023-01-28T15:42:57.672Z,99915.25
2023-01-28T15:45:48.092Z,99918.09
2023-01-28T15:48:35.489Z,99904.59
2023-01-28T15:51:24.909Z,99899.41
2023-01-28T15:54:11.121Z,99895.06
2023-01-28T15:56:57.256Z,99890.28
2023-01-28T15:59:44.883Z,99898.22
2023-01-28T16:02:31.789Z,99891.91
2023-01-28T16:05:43.056Z,99891.91
2023-01-28T16:08:37.041Z,99895.47
2023-01-28T16:11:26.383Z,99890.31
2023-01-28T16:14:27.529Z,99880.03
2023-01-28T16:17:20.264Z,99885.19
2023-01-28T16:20:20.254Z,99889.94
2023-01-28T16:23:21.905Z,99895.50
2023-01-28T16:26:26.725Z,99885.59
2023-01-28T16:29:16.006Z,99898.69
2023-01-28T16:32:04.284Z,99905.03
2023-01-28T16:34:50.109Z,99899.09
2023-01-28T16:37:40.779Z,99909.00
2023-01-28T16:40:29.721Z,99911.00
2023-01-28T16:43:17.470Z,99922.13
2023-01-28T16:46:04.181Z,99915.41
2023-01-28T16:48:51.625Z,99911.44
2023-01-28T16:51:41.007Z,99921.34
2023-01-28T16:54:27.359Z,99912.63
2023-01-28T16:57:22.231Z,99909.84
2023-01-28T17:00:08.746Z,99910.66
2023-01-28T17:02:55.037Z,99903.94
2023-01-28T17:05:40.174Z,99905.50
2023-01-28T17:08:25.415Z,99909.44
2023-01-28T17:11:10.709Z,99915.81
2023-01-28T17:13:55.962Z,99914.63
2023-01-28T17:16:41.672Z,99921.34
2023-01-28T17:19:26.976Z,99923.34
2023-01-28T17:22:12.308Z,99937.63
2023-01-28T17:24:57.484Z,99941.63
2023-01-28T17:27:42.853Z,99949.97
2023-01-28T17:30:28.189Z,99949.22
2023-01-28T17:33:13.389Z,99947.22
2023-01-28T17:35:58.926Z,99956.34
2023-01-28T17:38:45.668Z,99965.50
2023-01-28T17:41:30.966Z,99970.66
2023-01-28T17:44:18.889Z,99971.84
2023-01-28T17:47:04.254Z,99986.13
2023-01-28T17:49:49.494Z,99977.38
2023-01-28T17:52:34.968Z,99990.50
2023-01-28T17:55:21.904Z,99985.69
2023-01-28T17:58:08.628Z,99988.47
2023-01-28T18:00:54.492Z,99988.09
2023-01-28T18:03:41.279Z,99985.31
2023-01-28T18:06:32.646Z,99979.72
2023-01-28T18:09:19.424Z,99978.13
2023-01-28T18:12:06.248Z,99980.50
2023-01-28T18:14:51.939Z,99981.28
2023-01-28T18:17:38.270Z,99970.56
2023-01-28T18:20:24.335Z,99969.00
2023-01-28T18:23:10.369Z,99970.16
2023-01-28T18:26:01.763Z,99975.31
2023-01-28T18:28:48.576Z,99972.53
2023-01-28T18:31:34.741Z,99988.44
2023-01-28T18:34:20.800Z,99981.66
2023-01-28T18:37:13.069Z,99986.84
2023-01-28T18:39:58.480Z,99988.84
2023-01-28T18:42:43.620Z,99990.41
2023-01-28T18:45:29.219Z,99997.13
2023-01-28T18:48:15.177Z,99991.63
2023-01-28T18:51:00.417Z,100001.97
2023-01-28T18:53:45.802Z,100001.97
2023-01-28T18:56:33.053Z,100010.69
2023-01-28T18:59:18.767Z,100005.13
2023-01-28T19:02:04.572Z,100010.69
2023-01-28T19:04:49.983Z,100030.56
2023-01-28T19:07:35.456Z,100040.06
2023-01-28T19:10:23.686Z,100041.66
2023-01-28T19:13:09.724Z,100052.00
2023-01-28T19:15:56.436Z,100065.09
2023-01-28T19:18:42.141Z,100061.53
2023-01-28T19:21:29.149Z,100060.75
2023-01-28T19:24:14.993Z,100058.75
2023-01-28T19:27:00.106Z,100056.34
2023-01-28T19:29:45.469Z,100065.47
2023-01-28T19:32:30.688Z,100044.78
2023-01-28T19:35:16.579Z,100045.56
2023-01-28T19:38:03.361Z,100037.63
2023-01-28T19:40:48.907Z,100042.41
2023-01-28T19:43:35.657Z,100037.63
2023-01-28T19:46:21.426Z,100030.06
2023-01-28T19:49:06.740Z,100018.94
2023-01-28T19:51:52.367Z,100020.53
2023-01-28T19:54:37.736Z,100021.72
2023-01-28T19:57:23.085Z,100022.53
2023-01-28T20:00:09.373Z,100024.09
2023-01-28T20:02:54.776Z,100019.69
2023-01-28T20:05:40.198Z,100018.91
2023-01-28T20:08:25.455Z,100015.34
2023-01-28T20:11:15.904Z,100011.41
2023-01-28T20:14:01.464Z,100004.22
2023-01-28T20:16:47.409Z,100005.78
2023-01-28T20:19:34.934Z,100006.56
2023-01-28T20:22:21.461Z,100002.94
2023-01-28T20:25:08.611Z,100010.13
2023-01-28T20:27:54.269Z,100013.28
2023-01-28T20:30:39.906Z,99996.97
2023-01-28T20:33:25.128Z,99978.66
2023-01-28T20:36:12.566Z,99977.88
2023-01-28T20:38:58.583Z,99985.00
2023-01-28T20:41:44.070Z,99988.19
2023-01-28T20:44:32.162Z,99979.84
2023-01-28T20:47:17.458Z,99961.94
2023-01-28T20:50:02.841Z,99968.31
2023-01-28T20:52:48.408Z,99986.19
2023-01-28T20:55:33.689Z,100002.47
2023-01-28T20:58:19.529Z,100000.47
2023-01-28T21:01:05.089Z,99985.38
2023-01-28T21:03:51.116Z,99986.53
2023-01-28T21:06:36.686Z,100000.06
2023-01-28T21:09:25.383Z,100002.84
2023-01-28T21:12:10.792Z,100008.81
2023-01-28T21:14:56.867Z,100008.41
2023-01-28T21:17:42.446Z,100013.59
2023-01-28T21:20:29.323Z,100019.94
2023-01-28T21:23:15.717Z,100017.56
2023-01-28T21:26:03.485Z,100025.91
2023-01-28T21:28:49.095Z,100036.66
2023-01-28T21:31:34.513Z,100033.53
2023-01-28T21:34:20.022Z,100034.31
2023-01-28T21:37:05.408Z,100047.03
2023-01-28T21:39:50.561Z,100052.59
2023-01-28T21:42:35.873Z,100043.88
2023-01-28T21:45:21.124Z,100036.72
2023-01-28T21:48:06.703Z,100037.53
2023-01-28T21:51:11.400Z,100028.38
2023-01-28T21:53:56.692Z,100038.31
2023-01-28T21:56:43.846Z,100039.09
2023-01-28T21:59:29.891Z,100035.91
2023-01-28T22:02:15.688Z,100032.75
2023-01-28T22:05:00.913Z,100027.97
2023-01-28T22:07:46.202Z,100024.78
2023-01-28T22:10:31.501Z,100025.56
2023-01-28T22:13:17.104Z,100020.78
2023-01-28T22:16:02.821Z,100029.97
2023-01-28T22:18:50.374Z,100022.44
2023-01-28T22:21:41.309Z,100021.25
2023-01-28T22:24:27.505Z,100013.75
2023-01-28T22:27:14.148Z,100012.56
2023-01-28T22:29:59.272Z,100011.41
2023-01-28T22:32:44.606Z,100001.50
2023-01-28T22:35:30.304Z,99998.75
2023-01-28T22:38:15.632Z,100009.47
2023-01-28T22:41:09.674Z,100003.16
2023-01-28T22:43:55.329Z,99997.19
2023-01-28T22:46:40.639Z,99995.25
2023-01-28T22:49:26.762Z,99990.09
2023-01-28T22:52:12.203Z,99999.25
2023-01-28T22:54:57.559Z,99999.66
2023-01-28T22:57:42.731Z,99994.88
2023-01-28T23:00:28.230Z,99994.88
2023-01-28T23:03:14.158Z,99998.09
2023-01-28T23:06:02.228Z,99989.38
2023-01-28T23:08:49.500Z,99996.53
2023-01-28T23:11:35.705Z,99998.16
2023-01-28T23:14:39.519Z,100002.53
2023-01-28T23:17:43.280Z,100006.91
2023-01-28T23:20:47.204Z,100002.16
2023-01-28T23:23:51.145Z,100013.28
2023-01-28T23:26:36.270Z,100012.50
2023-01-28T23:29:24.831Z,100008.16
2023-01-28T23:32:11.222Z,100000.59
2023-01-28T23:34:56.842Z,100001.41
2023-01-28T23:37:42.458Z,99989.09
2023-01-28T23:40:27.839Z,99997.06
2023-01-28T23:43:13.064Z,99982.78
2023-01-28T23:45:58.397Z,99993.09
2023-01-28T23:48:43.735Z,100000.63
2023-01-28T23:51:29.034Z,100007.41
2023-01-28T23:54:14.284Z,100010.56
2023-01-28T23:57:00.644Z,99997.09
2023-01-28T23:59:45.922Z,99995.13
